Time;durP1;ratioP1;P1;durP2;ratioP2;P2;SDS_P1;SDS_P2;PMS_P1;PMS_P2;Temp;Humidity;BMP_temperature;BMP_pressure;BME280_temperature;BME280_humidity;BME280_pressure;Samples;Min_cycle;Max_cycle;Signal;HPM_P1;HPM_P2
2023/07/16 00:00:44;;;;;;;0.10;0.10;;;;;;;;;;5131088;28;20480;-51
2023/07/16 00:03:09;;;;;;;0.10;0.10;;;;;;;;;;5131342;28;20043;-52
2023/07/16 00:05:36;;;;;;;0.10;0.10;;;;;;;;;;5131313;28;20074;-52
2023/07/16 00:08:02;;;;;;;0.10;0.10;;;;;;;;;;5130835;28;20062;-53
2023/07/16 00:10:27;;;;;;;0.10;0.10;;;;;;;;;;5130466;28;20130;-53
2023/07/16 00:12:53;;;;;;;0.10;0.10;;;;;;;;;;5131630;28;20058;-52
2023/07/16 00:15:18;;;;;;;0.10;0.10;;;;;;;;;;5131077;28;20058;-52
2023/07/16 00:17:44;;;;;;;0.10;0.10;;;;;;;;;;5131404;28;20047;-52
2023/07/16 00:20:10;;;;;;;0.10;0.10;;;;;;;;;;5131175;28;20424;-53
2023/07/16 00:22:38;;;;;;;0.10;0.10;;;;;;;;;;5131374;28;20051;-52
2023/07/16 00:25:05;;;;;;;0.10;0.10;;;;;;;;;;5131885;28;20475;-52
2023/07/16 00:27:30;;;;;;;0.10;0.10;;;;;;;;;;5131058;28;20388;-53
2023/07/16 00:29:56;;;;;;;0.10;0.10;;;;;;;;;;5128398;28;20521;-53
2023/07/16 00:32:21;;;;;;;0.10;0.10;;;;;;;;;;5110307;28;20051;-52
2023/07/16 00:34:47;;;;;;;0.10;0.10;;;;;;;;;;5110844;28;20048;-51
2023/07/16 00:37:12;;;;;;;0.10;0.10;;;;;;;;;;5123688;27;20052;-52
2023/07/16 00:39:38;;;;;;;0.10;0.10;;;;;;;;;;5130772;27;20095;-52
2023/07/16 00:42:03;;;;;;;0.10;0.10;;;;;;;;;;5139811;27;20035;-52
2023/07/16 00:44:29;;;;;;;0.28;0.10;;;;;;;;;;5131060;28;20051;-52
2023/07/16 00:46:54;;;;;;;0.10;0.10;;;;;;;;;;5130927;28;20039;-53
2023/07/16 00:49:21;;;;;;;0.10;0.10;;;;;;;;;;5110079;28;20518;-53
2023/07/16 00:51:46;;;;;;;0.10;0.10;;;;;;;;;;5110028;28;20044;-53
2023/07/16 00:54:12;;;;;;;0.10;0.10;;;;;;;;;;5110611;28;20117;-52
2023/07/16 00:56:38;;;;;;;0.10;0.10;;;;;;;;;;5110815;28;20476;-52
2023/07/16 00:59:03;;;;;;;0.10;0.10;;;;;;;;;;5110349;28;20055;-52
2023/07/16 01:01:29;;;;;;;0.10;0.10;;;;;;;;;;5109959;28;20096;-52
2023/07/16 01:03:55;;;;;;;0.10;0.10;;;;;;;;;;5109712;28;20464;-52
2023/07/16 01:06:33;;;;;;;0.10;0.10;;;;;;;;;;5110488;28;20491;-52
2023/07/16 01:09:06;;;;;;;0.10;0.10;;;;;;;;;;5109623;28;20054;-52
2023/07/16 01:11:35;;;;;;;0.10;0.10;;;;;;;;;;5108864;28;20457;-52
2023/07/16 01:14:00;;;;;;;;;;;;;;;;;;5110185;28;20051;-51
2023/07/16 01:16:27;;;;;;;0.10;0.10;;;;;;;;;;5109687;28;20032;-53
2023/07/16 01:18:52;;;;;;;0.10;0.10;;;;;;;;;;5109373;28;20122;-53
2023/07/16 01:21:19;;;;;;;0.10;0.10;;;;;;;;;;5095257;28;20633;-53
2023/07/16 01:24:05;;;;;;;0.10;0.10;;;;;;;;;;5089441;28;20094;-51
2023/07/16 01:26:35;;;;;;;0.10;0.10;;;;;;;;;;5074445;28;20056;-53
2023/07/16 01:29:09;;;;;;;0.10;0.10;;;;;;;;;;5101336;28;20043;-52
2023/07/16 01:31:34;;;;;;;0.10;0.10;;;;;;;;;;5108855;28;20048;-53
2023/07/16 01:34:03;;;;;;;0.10;0.10;;;;;;;;;;5109497;28;20108;-53
2023/07/16 01:36:29;;;;;;;0.10;0.10;;;;;;;;;;5109402;28;20055;-53
2023/07/16 01:38:54;;;;;;;0.10;0.10;;;;;;;;;;5109071;28;20047;-53
2023/07/16 01:41:20;;;;;;;0.10;0.10;;;;;;;;;;5108559;28;20058;-53
2023/07/16 01:43:45;;;;;;;0.10;0.10;;;;;;;;;;5109324;28;20082;-53
2023/07/16 01:46:11;;;;;;;0.10;0.10;;;;;;;;;;5109101;28;20105;-53
2023/07/16 01:48:37;;;;;;;0.10;0.10;;;;;;;;;;5109406;28;20396;-52
2023/07/16 01:51:03;;;;;;;0.10;0.10;;;;;;;;;;5111948;28;20043;-52
2023/07/16 01:53:29;;;;;;;0.10;0.10;;;;;;;;;;5113291;28;20051;-52
2023/07/16 01:55:54;;;;;;;0.10;0.10;;;;;;;;;;5113275;28;20062;-52
2023/07/16 01:58:20;;;;;;;0.10;0.10;;;;;;;;;;5113389;28;20051;-53
2023/07/16 02:00:45;;;;;;;0.10;0.10;;;;;;;;;;5112318;28;20476;-53
2023/07/16 02:03:11;;;;;;;0.10;0.10;;;;;;;;;;5112979;28;20134;-53
2023/07/16 02:05:37;;;;;;;0.10;0.10;;;;;;;;;;5113658;28;20040;-52
2023/07/16 02:08:02;;;;;;;0.10;0.10;;;;;;;;;;5112539;28;20078;-53
2023/07/16 02:10:28;;;;;;;0.10;0.10;;;;;;;;;;5112126;28;20460;-52
2023/07/16 02:12:53;;;;;;;0.10;0.10;;;;;;;;;;5112876;28;20059;-52
2023/07/16 02:15:19;;;;;;;0.10;0.10;;;;;;;;;;5112648;28;20133;-52
2023/07/16 02:17:44;;;;;;;0.10;0.10;;;;;;;;;;5113357;28;20051;-53
2023/07/16 02:20:10;;;;;;;0.10;0.10;;;;;;;;;;5111117;28;20113;-53
2023/07/16 02:22:36;;;;;;;0.10;0.10;;;;;;;;;;5112188;28;20419;-52
2023/07/16 02:25:02;;;;;;;0.10;0.10;;;;;;;;;;5112925;28;20055;-52
2023/07/16 02:27:28;;;;;;;0.10;0.10;;;;;;;;;;5112916;28;20491;-53
2023/07/16 02:29:54;;;;;;;0.10;0.10;;;;;;;;;;5111451;28;20055;-53
2023/07/16 02:32:20;;;;;;;0.10;0.10;;;;;;;;;;5112151;28;20050;-52
2023/07/16 02:34:45;;;;;;;0.10;0.10;;;;;;;;;;5112885;28;20549;-53
2023/07/16 02:37:11;;;;;;;0.10;0.10;;;;;;;;;;5113168;28;20517;-53
2023/07/16 02:39:38;;;;;;;0.10;0.10;;;;;;;;;;5111739;28;20524;-51
2023/07/16 02:42:03;;;;;;;0.10;0.10;;;;;;;;;;5111358;28;20104;-52
2023/07/16 02:44:29;;;;;;;0.10;0.10;;;;;;;;;;5112737;28;20048;-53
2023/07/16 02:46:54;;;;;;;0.10;0.10;;;;;;;;;;5111548;28;20488;-53
2023/07/16 02:49:20;;;;;;;0.10;0.10;;;;;;;;;;5112736;28;20503;-52
2023/07/16 02:51:46;;;;;;;0.10;0.10;;;;;;;;;;5094073;28;20098;-52
2023/07/16 02:54:11;;;;;;;0.10;0.10;;;;;;;;;;5092138;28;20048;-52
2023/07/16 02:56:37;;;;;;;0.10;0.10;;;;;;;;;;5092078;28;20641;-52
2023/07/16 02:59:02;;;;;;;0.10;0.10;;;;;;;;;;5091861;28;20056;-51
2023/07/16 03:01:28;;;;;;;0.10;0.10;;;;;;;;;;5090911;28;20480;-52
2023/07/16 03:03:53;;;;;;;0.10;0.10;;;;;;;;;;5111184;28;20051;-52
2023/07/16 03:06:19;;;;;;;0.10;0.10;;;;;;;;;;5112571;28;20545;-52
2023/07/16 03:08:48;;;;;;;0.10;0.10;;;;;;;;;;5111967;28;20146;-53
2023/07/16 03:11:13;;;;;;;0.10;0.10;;;;;;;;;;5097755;28;20050;-52
2023/07/16 03:13:39;;;;;;;0.10;0.10;;;;;;;;;;5091583;28;20549;-53
2023/07/16 03:16:04;;;;;;;0.10;0.10;;;;;;;;;;5091273;28;20420;-53
2023/07/16 03:18:30;;;;;;;0.10;0.10;;;;;;;;;;5091947;28;20522;-53
2023/07/16 03:20:56;;;;;;;0.10;0.10;;;;;;;;;;5091235;28;20549;-53
2023/07/16 03:23:22;;;;;;;0.10;0.10;;;;;;;;;;5109783;28;20047;-52
2023/07/16 03:25:47;;;;;;;0.10;0.10;;;;;;;;;;5112298;28;20048;-52
2023/07/16 03:28:13;;;;;;;0.10;0.10;;;;;;;;;;5111794;28;20040;-52
2023/07/16 03:30:39;;;;;;;0.10;0.10;;;;;;;;;;5111307;28;20059;-53
2023/07/16 03:33:04;;;;;;;0.10;0.10;;;;;;;;;;5111051;28;20064;-53
2023/07/16 03:35:30;;;;;;;0.10;0.10;;;;;;;;;;5111821;28;20074;-52
2023/07/16 03:37:56;;;;;;;0.10;0.10;;;;;;;;;;5111742;28;20074;-51
2023/07/16 03:40:24;;;;;;;0.10;0.10;;;;;;;;;;5105944;28;20059;-52
2023/07/16 03:42:50;;;;;;;0.10;0.10;;;;;;;;;;5105796;28;20050;-52
2023/07/16 03:45:15;;;;;;;0.10;0.10;;;;;;;;;;5110884;28;20051;-53
2023/07/16 03:47:41;;;;;;;0.10;0.10;;;;;;;;;;5109630;28;20416;-53
2023/07/16 03:50:07;;;;;;;0.10;0.10;;;;;;;;;;5106771;28;20048;-53
2023/07/16 03:52:32;;;;;;;0.10;0.10;;;;;;;;;;5090534;28;20105;-52
2023/07/16 03:54:58;;;;;;;0.10;0.10;;;;;;;;;;5090476;28;20138;-52
2023/07/16 03:57:24;;;;;;;0.10;0.10;;;;;;;;;;5090599;28;20059;-52
2023/07/16 03:59:49;;;;;;;0.10;0.10;;;;;;;;;;5090542;28;20477;-52
2023/07/16 04:02:15;;;;;;;0.10;0.10;;;;;;;;;;5090214;28;20048;-51
2023/07/16 04:04:40;;;;;;;0.10;0.10;;;;;;;;;;5101590;28;20059;-52
2023/07/16 04:07:06;;;;;;;0.10;0.10;;;;;;;;;;5110989;28;20047;-52
2023/07/16 04:09:31;;;;;;;0.10;0.10;;;;;;;;;;5110622;28;20459;-50
2023/07/16 04:11:57;;;;;;;0.10;0.10;;;;;;;;;;5109236;28;20078;-52
2023/07/16 04:14:22;;;;;;;0.10;0.10;;;;;;;;;;5110672;28;20048;-52
2023/07/16 04:16:48;;;;;;;0.10;0.10;;;;;;;;;;5110681;28;20051;-53
2023/07/16 04:19:13;;;;;;;0.13;0.13;;;;;;;;;;5110443;28;20160;-52
2023/07/16 04:21:39;;;;;;;0.10;0.10;;;;;;;;;;5110202;28;20387;-52
2023/07/16 04:24:05;;;;;;;0.10;0.10;;;;;;;;;;5110472;28;20318;-50
2023/07/16 04:26:31;;;;;;;0.10;0.10;;;;;;;;;;5111415;28;20051;-53
2023/07/16 04:28:56;;;;;;;0.10;0.10;;;;;;;;;;5110609;28;20047;-52
2023/07/16 04:31:22;;;;;;;0.10;0.10;;;;;;;;;;5095808;28;20061;-51
2023/07/16 04:33:48;;;;;;;0.10;0.10;;;;;;;;;;5099083;28;20047;-52
2023/07/16 04:36:13;;;;;;;0.10;0.10;;;;;;;;;;5110349;28;20055;-53
2023/07/16 04:38:39;;;;;;;0.10;0.10;;;;;;;;;;5111214;28;20051;-53
2023/07/16 04:41:05;;;;;;;0.10;0.10;;;;;;;;;;5099798;28;20062;-51
2023/07/16 04:43:30;;;;;;;0.10;0.10;;;;;;;;;;5096458;28;20085;-52
2023/07/16 04:45:56;;;;;;;0.10;0.10;;;;;;;;;;5110874;28;20039;-54
2023/07/16 04:48:21;;;;;;;0.10;0.10;;;;;;;;;;5111142;28;20070;-52
2023/07/16 04:50:47;;;;;;;0.10;0.10;;;;;;;;;;5109985;28;20082;-53
2023/07/16 04:53:12;;;;;;;0.10;0.10;;;;;;;;;;5110600;28;20093;-52
2023/07/16 04:55:39;;;;;;;0.10;0.10;;;;;;;;;;5110847;28;20048;-50
2023/07/16 04:58:04;;;;;;;0.10;0.10;;;;;;;;;;5111011;28;20071;-51
2023/07/16 05:00:32;;;;;;;0.10;0.10;;;;;;;;;;5110230;28;20044;-52
2023/07/16 05:02:57;;;;;;;0.10;0.10;;;;;;;;;;5110487;28;20112;-52
2023/07/16 05:05:23;;;;;;;0.10;0.10;;;;;;;;;;5110302;28;20445;-51
2023/07/16 05:07:48;;;;;;;0.10;0.10;;;;;;;;;;5109876;28;20503;-52
2023/07/16 05:10:14;;;;;;;0.10;0.10;;;;;;;;;;5104437;28;20833;-52
2023/07/16 05:12:39;;;;;;;0.10;0.10;;;;;;;;;;5089363;28;20064;-51
2023/07/16 05:15:05;;;;;;;0.10;0.10;;;;;;;;;;5090025;28;20052;-52
2023/07/16 05:17:31;;;;;;;0.10;0.10;;;;;;;;;;5089860;28;20048;-53
2023/07/16 05:19:56;;;;;;;0.10;0.10;;;;;;;;;;5089887;28;20048;-52
2023/07/16 05:22:22;;;;;;;0.10;0.10;;;;;;;;;;5089619;28;20079;-52
2023/07/16 05:24:48;;;;;;;0.10;0.10;;;;;;;;;;5093908;28;20052;-52
2023/07/16 05:27:13;;;;;;;0.10;0.10;;;;;;;;;;5112928;28;20089;-53
2023/07/16 05:29:39;;;;;;;0.10;0.10;;;;;;;;;;5112975;28;20043;-51
2023/07/16 05:32:04;;;;;;;0.10;0.10;;;;;;;;;;5112748;28;20101;-52
2023/07/16 05:34:30;;;;;;;0.10;0.10;;;;;;;;;;5113301;28;20039;-53
2023/07/16 05:36:56;;;;;;;0.10;0.10;;;;;;;;;;5113096;28;20495;-52
2023/07/16 05:39:21;;;;;;;0.10;0.10;;;;;;;;;;5097387;28;20052;-52
2023/07/16 05:41:47;;;;;;;0.10;0.10;;;;;;;;;;5111878;28;20044;-52
2023/07/16 05:44:12;;;;;;;0.10;0.10;;;;;;;;;;5113542;28;20047;-52
2023/07/16 05:46:38;;;;;;;0.10;0.10;;;;;;;;;;5113423;28;20043;-52
2023/07/16 05:49:04;;;;;;;0.10;0.10;;;;;;;;;;5113684;28;20056;-52
2023/07/16 05:51:29;;;;;;;0.10;0.10;;;;;;;;;;5113125;28;20488;-52
2023/07/16 05:53:55;;;;;;;0.10;0.10;;;;;;;;;;5113881;28;20131;-52
2023/07/16 05:56:20;;;;;;;0.10;0.10;;;;;;;;;;5114036;28;20054;-52
2023/07/16 05:58:46;;;;;;;0.10;0.10;;;;;;;;;;5113229;28;20044;-52
2023/07/16 06:01:11;;;;;;;0.10;0.10;;;;;;;;;;5099807;28;20489;-52
2023/07/16 06:03:37;;;;;;;0.10;0.10;;;;;;;;;;5092947;28;20546;-52
2023/07/16 06:06:02;;;;;;;0.10;0.10;;;;;;;;;;5093576;28;20063;-50
2023/07/16 06:08:28;;;;;;;0.10;0.10;;;;;;;;;;5105766;28;20103;-52
2023/07/16 06:10:53;;;;;;;0.10;0.10;;;;;;;;;;5112752;28;20411;-52
2023/07/16 06:13:19;;;;;;;0.10;0.10;;;;;;;;;;5113276;28;20491;-52
2023/07/16 06:15:45;;;;;;;0.10;0.10;;;;;;;;;;5113256;28;20047;-52
2023/07/16 06:18:11;;;;;;;0.10;0.10;;;;;;;;;;5113728;28;20498;-53
2023/07/16 06:20:42;;;;;;;0.10;0.10;;;;;;;;;;5113197;28;20065;-52
2023/07/16 06:23:08;;;;;;;0.10;0.10;;;;;;;;;;5113292;28;20058;-52
2023/07/16 06:25:33;;;;;;;0.10;0.10;;;;;;;;;;5113516;28;20043;-52
2023/07/16 06:27:59;;;;;;;0.10;0.10;;;;;;;;;;5112703;28;20496;-52
2023/07/16 06:30:24;;;;;;;0.10;0.10;;;;;;;;;;5105627;28;20056;-52
2023/07/16 06:32:50;;;;;;;0.10;0.10;;;;;;;;;;5091743;28;20048;-51
2023/07/16 06:35:16;;;;;;;0.10;0.10;;;;;;;;;;5091909;28;20051;-51
2023/07/16 06:37:41;;;;;;;0.10;0.10;;;;;;;;;;5103266;28;20066;-52
2023/07/16 06:40:07;;;;;;;0.10;0.10;;;;;;;;;;5109606;28;20043;-52
2023/07/16 06:42:32;;;;;;;0.10;0.10;;;;;;;;;;5092387;28;20045;-53
2023/07/16 06:44:58;;;;;;;0.10;0.10;;;;;;;;;;5108760;28;20396;-53
2023/07/16 06:47:24;;;;;;;0.10;0.10;;;;;;;;;;5112149;28;20044;-52
2023/07/16 06:49:49;;;;;;;0.10;0.10;;;;;;;;;;5110321;28;20043;-52
2023/07/16 06:52:18;;;;;;;0.15;0.15;;;;;;;;;;5093082;28;20063;-53
2023/07/16 06:54:44;;;;;;;0.10;0.10;;;;;;;;;;5111544;28;20455;-52
2023/07/16 06:57:09;;;;;;;0.10;0.10;;;;;;;;;;5112626;28;20048;-52
2023/07/16 06:59:35;;;;;;;0.10;0.10;;;;;;;;;;5112154;28;20066;-52
2023/07/16 07:02:00;;;;;;;0.10;0.10;;;;;;;;;;5091975;28;20135;-52
2023/07/16 07:04:26;;;;;;;0.10;0.10;;;;;;;;;;5091200;28;20389;-52
2023/07/16 07:06:51;;;;;;;0.10;0.10;;;;;;;;;;5092131;28;20048;-52
2023/07/16 07:09:17;;;;;;;0.10;0.10;;;;;;;;;;5096347;28;20133;-52
2023/07/16 07:11:43;;;;;;;0.10;0.10;;;;;;;;;;5109725;28;20403;-52
2023/07/16 07:14:08;;;;;;;0.10;0.10;;;;;;;;;;5112500;28;20374;-52
2023/07/16 07:16:37;;;;;;;0.10;0.10;;;;;;;;;;5111695;28;20039;-50
2023/07/16 07:19:02;;;;;;;0.10;0.10;;;;;;;;;;5112681;28;20447;-53
2023/07/16 07:21:28;;;;;;;0.10;0.10;;;;;;;;;;5111890;28;20048;-52
2023/07/16 07:23:53;;;;;;;0.10;0.10;;;;;;;;;;5112313;28;20039;-53
2023/07/16 07:26:19;;;;;;;0.10;0.10;;;;;;;;;;5112712;28;20453;-52
2023/07/16 07:28:45;;;;;;;0.10;0.10;;;;;;;;;;5111923;28;20549;-52
2023/07/16 07:31:10;;;;;;;0.10;0.10;;;;;;;;;;5097971;28;20147;-50
2023/07/16 07:33:36;;;;;;;0.10;0.10;;;;;;;;;;5091823;28;20044;-53
2023/07/16 07:36:01;;;;;;;0.10;0.10;;;;;;;;;;5091841;28;20048;-53
2023/07/16 07:38:28;;;;;;;0.10;0.10;;;;;;;;;;5108386;27;20518;-51
2023/07/16 07:40:53;;;;;;;0.10;0.10;;;;;;;;;;5110858;28;20040;-52
2023/07/16 07:43:19;;;;;;;0.10;0.10;;;;;;;;;;5111815;28;20051;-53
2023/07/16 07:45:44;;;;;;;0.10;0.10;;;;;;;;;;5111924;28;20093;-52
2023/07/16 07:48:10;;;;;;;0.10;0.10;;;;;;;;;;5110928;28;20044;-50
2023/07/16 07:50:36;;;;;;;0.10;0.10;;;;;;;;;;5111133;28;20051;-53
2023/07/16 07:53:02;;;;;;;0.10;0.10;;;;;;;;;;5111464;28;20491;-52
2023/07/16 07:55:27;;;;;;;0.10;0.10;;;;;;;;;;5111415;28;20175;-51
2023/07/16 07:57:53;;;;;;;0.10;0.10;;;;;;;;;;5112024;28;20118;-52
2023/07/16 08:00:19;;;;;;;0.10;0.10;;;;;;;;;;5105613;28;20051;-52
2023/07/16 08:02:45;;;;;;;0.10;0.10;;;;;;;;;;5091230;28;20079;-50
2023/07/16 08:05:11;;;;;;;0.10;0.10;;;;;;;;;;5091539;28;20044;-53
2023/07/16 08:07:36;;;;;;;0.10;0.10;;;;;;;;;;5091365;28;20052;-52
2023/07/16 08:10:02;;;;;;;0.10;0.10;;;;;;;;;;5104705;28;20048;-53
2023/07/16 08:12:28;;;;;;;0.10;0.10;;;;;;;;;;5111437;28;20472;-51
2023/07/16 08:14:53;;;;;;;0.10;0.10;;;;;;;;;;5111289;28;20092;-51
2023/07/16 08:17:19;;;;;;;0.10;0.10;;;;;;;;;;5110922;28;20396;-52
2023/07/16 08:19:48;;;;;;;0.10;0.10;;;;;;;;;;5109958;28;20488;-52
2023/07/16 08:22:13;;;;;;;0.10;0.10;;;;;;;;;;5091153;28;20051;-52
2023/07/16 08:24:39;;;;;;;0.10;0.10;;;;;;;;;;5091170;28;20060;-52
2023/07/16 08:27:04;;;;;;;0.10;0.10;;;;;;;;;;5091534;28;20059;-52
2023/07/16 08:29:30;;;;;;;0.10;0.10;;;;;;;;;;5107833;28;20055;-52
2023/07/16 08:31:55;;;;;;;0.10;0.10;;;;;;;;;;5106996;28;20049;-52
2023/07/16 08:34:21;;;;;;;0.10;0.10;;;;;;;;;;5111181;28;20063;-51
2023/07/16 08:36:47;;;;;;;0.10;0.10;;;;;;;;;;5114030;28;20050;-52
2023/07/16 08:39:12;;;;;;;0.10;0.10;;;;;;;;;;5131487;28;20058;-51
2023/07/16 08:41:38;;;;;;;0.10;0.10;;;;;;;;;;5111072;28;20051;-52
2023/07/16 08:44:04;;;;;;;0.10;0.10;;;;;;;;;;5109996;28;20070;-51
2023/07/16 08:46:29;;;;;;;0.10;0.10;;;;;;;;;;5110823;28;20407;-52
2023/07/16 08:48:56;;;;;;;0.10;0.10;;;;;;;;;;5110790;28;20719;-52
2023/07/16 08:51:23;;;;;;;0.10;0.10;;;;;;;;;;5109541;28;20048;-52
2023/07/16 08:53:48;;;;;;;0.10;0.10;;;;;;;;;;5110700;28;20077;-52
2023/07/16 08:56:14;;;;;;;0.10;0.10;;;;;;;;;;5110369;28;20051;-52
2023/07/16 08:58:42;;;;;;;0.10;0.10;;;;;;;;;;5110332;28;20516;-50
2023/07/16 09:01:09;;;;;;;0.10;0.10;;;;;;;;;;5097435;28;20044;-52
2023/07/16 09:03:35;;;;;;;0.10;0.10;;;;;;;;;;5090016;28;20495;-52
2023/07/16 09:06:01;;;;;;;0.10;0.10;;;;;;;;;;5090298;28;20049;-51
2023/07/16 09:08:28;;;;;;;0.10;0.10;;;;;;;;;;5090149;28;20052;-52
2023/07/16 09:10:55;;;;;;;0.10;0.10;;;;;;;;;;5089158;28;20055;-50
2023/07/16 09:13:20;;;;;;;0.10;0.10;;;;;;;;;;5089654;28;20534;-51
2023/07/16 09:16:01;;;;;;;0.10;0.10;;;;;;;;;;5089555;28;20048;-52
2023/07/16 09:18:27;;;;;;;0.10;0.10;;;;;;;;;;5089624;28;20484;-52
2023/07/16 09:20:54;;;;;;;0.10;0.10;;;;;;;;;;5090192;28;20056;-51
2023/07/16 09:23:20;;;;;;;0.10;0.10;;;;;;;;;;5090356;28;20044;-51
2023/07/16 09:25:46;;;;;;;0.10;0.10;;;;;;;;;;5090529;28;20284;-51
2023/07/16 09:28:12;;;;;;;0.10;0.10;;;;;;;;;;5090303;28;20497;-52
2023/07/16 09:30:37;;;;;;;0.10;0.10;;;;;;;;;;5101173;28;20096;-53
2023/07/16 09:33:12;;;;;;;0.10;0.10;;;;;;;;;;5109979;28;20048;-51
2023/07/16 09:35:37;;;;;;;0.30;0.30;;;;;;;;;;5109992;28;20054;-50
2023/07/16 09:38:03;;;;;;;0.10;0.10;;;;;;;;;;5110533;28;20040;-49
2023/07/16 09:40:28;;;;;;;0.10;0.10;;;;;;;;;;5109902;28;20066;-48
2023/07/16 09:42:55;;;;;;;0.10;0.10;;;;;;;;;;5109347;28;20457;-50
2023/07/16 09:45:21;;;;;;;0.10;0.10;;;;;;;;;;5110342;28;20048;-52
2023/07/16 09:47:46;;;;;;;0.10;0.10;;;;;;;;;;5110628;28;20090;-50
2023/07/16 09:50:12;;;;;;;0.10;0.10;;;;;;;;;;5104821;28;20082;-50
2023/07/16 09:52:39;;;;;;;0.10;0.10;;;;;;;;;;5097080;28;20048;-51
2023/07/16 09:55:07;;;;;;;0.10;0.10;;;;;;;;;;5109998;28;20051;-51
2023/07/16 09:57:33;;;;;;;;;;;;;;;;;;5110750;28;20051;-52
2023/07/16 10:00:00;;;;;;;0.10;0.10;;;;;;;;;;5106620;28;20125;-52
2023/07/16 10:02:25;;;;;;;0.10;0.10;;;;;;;;;;5089543;28;20553;-51
2023/07/16 10:04:55;;;;;;;0.10;0.10;;;;;;;;;;5089799;28;20122;-52
2023/07/16 10:07:22;;;;;;;0.10;0.10;;;;;;;;;;5090194;28;20047;-52
2023/07/16 10:09:56;;;;;;;0.10;0.10;;;;;;;;;;5089222;28;20085;-51
2023/07/16 10:12:23;;;;;;;0.10;0.10;;;;;;;;;;5093000;28;20048;-52
2023/07/16 10:14:50;;;;;;;0.10;0.10;;;;;;;;;;5093479;28;20055;-52
2023/07/16 10:17:17;;;;;;;0.10;0.10;;;;;;;;;;5092781;28;20055;-53
2023/07/16 10:19:47;;;;;;;0.10;0.10;;;;;;;;;;5092965;28;20055;-50
2023/07/16 10:22:12;;;;;;;0.10;0.10;;;;;;;;;;5092308;28;20048;-51
2023/07/16 10:24:39;;;;;;;0.10;0.10;;;;;;;;;;5092717;28;20051;-52
2023/07/16 10:27:05;;;;;;;0.10;0.10;;;;;;;;;;5093143;28;20048;-50
2023/07/16 10:29:30;;;;;;;0.10;0.10;;;;;;;;;;5092778;28;20048;-52
2023/07/16 10:31:57;;;;;;;0.10;0.10;;;;;;;;;;5111142;28;20048;-52
2023/07/16 10:34:23;;;;;;;0.10;0.10;;;;;;;;;;5112769;28;20499;-52
2023/07/16 10:36:49;;;;;;;0.10;0.10;;;;;;;;;;5122723;28;20094;-52
2023/07/16 10:39:15;;;;;;;0.10;0.10;;;;;;;;;;5133716;28;20062;-53
2023/07/16 10:41:41;;;;;;;0.10;0.10;;;;;;;;;;5115725;28;20496;-52
2023/07/16 10:44:08;;;;;;;0.10;0.10;;;;;;;;;;5112645;28;20043;-52
2023/07/16 10:46:33;;;;;;;0.10;0.10;;;;;;;;;;5113170;28;20078;-52
2023/07/16 10:48:59;;;;;;;0.10;0.10;;;;;;;;;;5113131;28;20108;-52
2023/07/16 10:51:26;;;;;;;0.10;0.10;;;;;;;;;;5097385;28;20043;-52
2023/07/16 10:53:54;;;;;;;0.10;0.10;;;;;;;;;;5095337;28;20059;-52
2023/07/16 10:56:20;;;;;;;0.10;0.10;;;;;;;;;;5112141;28;20089;-52
2023/07/16 10:58:46;;;;;;;0.10;0.10;;;;;;;;;;5112900;28;20399;-50
2023/07/16 11:01:11;;;;;;;0.10;0.10;;;;;;;;;;5111190;28;20074;-51
2023/07/16 11:03:37;;;;;;;0.10;0.10;;;;;;;;;;5112658;28;20089;-53
2023/07/16 11:06:07;;;;;;;0.10;0.10;;;;;;;;;;5112942;28;20482;-52
2023/07/16 11:08:32;;;;;;;0.10;0.10;;;;;;;;;;5112421;28;20094;-52
2023/07/16 11:10:58;;;;;;;0.10;0.10;;;;;;;;;;5112231;28;20048;-52
2023/07/16 11:13:25;;;;;;;0.10;0.10;;;;;;;;;;5112477;28;20052;-52
2023/07/16 11:15:50;;;;;;;0.10;0.10;;;;;;;;;;5112228;28;20052;-52
2023/07/16 11:18:16;;;;;;;0.10;0.10;;;;;;;;;;5112374;28;20040;-52
2023/07/16 11:20:41;;;;;;;0.10;0.10;;;;;;;;;;5111833;28;20048;-51
2023/07/16 11:23:10;;;;;;;0.10;0.10;;;;;;;;;;5112260;28;20075;-52
2023/07/16 11:25:35;;;;;;;0.10;0.10;;;;;;;;;;5112566;28;20442;-52
2023/07/16 11:28:01;;;;;;;0.10;0.10;;;;;;;;;;5112372;28;20047;-51
2023/07/16 11:30:28;;;;;;;0.10;0.10;;;;;;;;;;5111626;28;20039;-51
2023/07/16 11:32:55;;;;;;;0.10;0.10;;;;;;;;;;5111679;28;20047;-52
2023/07/16 11:35:20;;;;;;;0.10;0.10;;;;;;;;;;5111559;28;20536;-52
2023/07/16 11:37:46;;;;;;;0.10;0.10;;;;;;;;;;5112628;28;20069;-53
2023/07/16 11:40:16;;;;;;;0.10;0.10;;;;;;;;;;5111712;28;20050;-52
2023/07/16 11:42:42;;;;;;;0.10;0.10;;;;;;;;;;5112029;28;20054;-51
2023/07/16 11:45:17;;;;;;;0.10;0.10;;;;;;;;;;5112250;28;20089;-52
2023/07/16 11:47:42;;;;;;;0.30;0.30;;;;;;;;;;5110723;28;20473;-52
2023/07/16 11:50:10;;;;;;;0.10;0.10;;;;;;;;;;5111541;28;20595;-52
2023/07/16 11:52:35;;;;;;;0.10;0.10;;;;;;;;;;5111697;28;20052;-52
2023/07/16 11:55:03;;;;;;;0.10;0.10;;;;;;;;;;5112063;28;20040;-52
2023/07/16 11:57:29;;;;;;;0.10;0.10;;;;;;;;;;5111157;28;20051;-52
2023/07/16 11:59:55;;;;;;;0.10;0.10;;;;;;;;;;5109541;28;20052;-52
2023/07/16 12:02:21;;;;;;;0.10;0.10;;;;;;;;;;5100806;28;20044;-52
2023/07/16 12:04:47;;;;;;;0.10;0.10;;;;;;;;;;5111322;28;20369;-52
2023/07/16 12:07:13;;;;;;;0.10;0.10;;;;;;;;;;5111725;28;20077;-49
2023/07/16 12:09:38;;;;;;;0.10;0.10;;;;;;;;;;5110911;28;20082;-52
2023/07/16 12:12:04;;;;;;;0.10;0.10;;;;;;;;;;5110814;28;20040;-52
2023/07/16 12:14:30;;;;;;;0.10;0.10;;;;;;;;;;5111082;28;20075;-51
2023/07/16 12:16:56;;;;;;;0.10;0.10;;;;;;;;;;5110621;28;20071;-53
2023/07/16 12:19:22;;;;;;;0.10;0.10;;;;;;;;;;5111060;28;20450;-52
2023/07/16 12:21:47;;;;;;;0.10;0.10;;;;;;;;;;5110669;28;20540;-53
2023/07/16 12:24:13;;;;;;;0.10;0.10;;;;;;;;;;5110774;28;20078;-52
2023/07/16 12:26:38;;;;;;;0.10;0.10;;;;;;;;;;5111268;28;20044;-52
2023/07/16 12:29:04;;;;;;;0.10;0.10;;;;;;;;;;5111067;28;20047;-52
2023/07/16 12:31:31;;;;;;;0.10;0.10;;;;;;;;;;5110556;28;20047;-52
2023/07/16 12:33:56;;;;;;;0.32;0.30;;;;;;;;;;5109930;28;20047;-51
2023/07/16 12:36:22;;;;;;;0.10;0.10;;;;;;;;;;5112597;28;20070;-54
2023/07/16 12:38:47;;;;;;;0.10;0.10;;;;;;;;;;5110373;28;20116;-52
2023/07/16 12:41:14;;;;;;;0.10;0.10;;;;;;;;;;5110356;28;20465;-53
2023/07/16 12:43:40;;;;;;;0.10;0.10;;;;;;;;;;5110590;28;20052;-51
2023/07/16 12:46:06;;;;;;;0.10;0.10;;;;;;;;;;5110636;28;20064;-52
2023/07/16 12:48:31;;;;;;;0.10;0.10;;;;;;;;;;5110122;28;20447;-53
2023/07/16 12:50:57;;;;;;;0.10;0.10;;;;;;;;;;5109700;28;20054;-52
2023/07/16 12:53:23;;;;;;;0.10;0.10;;;;;;;;;;5110415;28;20060;-51
2023/07/16 12:55:48;;;;;;;0.10;0.10;;;;;;;;;;5110285;28;20043;-52
2023/07/16 12:58:14;;;;;;;0.10;0.10;;;;;;;;;;5109325;28;20167;-52
2023/07/16 13:00:39;;;;;;;0.10;0.10;;;;;;;;;;5110281;28;20502;-52
2023/07/16 13:03:05;;;;;;;0.10;0.10;;;;;;;;;;5109844;28;20423;-52
2023/07/16 13:05:31;;;;;;;0.10;0.10;;;;;;;;;;5109909;28;20044;-52
2023/07/16 13:07:56;;;;;;;0.20;0.20;;;;;;;;;;5110146;28;20047;-52
2023/07/16 13:10:22;;;;;;;0.10;0.10;;;;;;;;;;5103297;28;20105;-52
2023/07/16 13:12:49;;;;;;;0.10;0.10;;;;;;;;;;5089708;28;20055;-52
2023/07/16 13:15:15;;;;;;;0.10;0.10;;;;;;;;;;5089864;28;20052;-52
2023/07/16 13:17:40;;;;;;;0.10;0.10;;;;;;;;;;5089462;28;20093;-52
2023/07/16 13:20:06;;;;;;;0.10;0.10;;;;;;;;;;5089436;28;20044;-52
2023/07/16 13:22:32;;;;;;;0.10;0.10;;;;;;;;;;5089519;28;20190;-53
2023/07/16 13:24:58;;;;;;;0.10;0.10;;;;;;;;;;5089434;28;20047;-51
2023/07/16 13:27:24;;;;;;;0.10;0.10;;;;;;;;;;5089967;28;20071;-51
2023/07/16 13:29:49;;;;;;;0.10;0.10;;;;;;;;;;5089209;28;20048;-52
2023/07/16 13:32:15;;;;;;;0.10;0.10;;;;;;;;;;5089491;28;20048;-51
2023/07/16 13:34:41;;;;;;;0.10;0.10;;;;;;;;;;5102637;28;20047;-52
2023/07/16 13:37:06;;;;;;;0.10;0.10;;;;;;;;;;5124644;28;20527;-52
2023/07/16 13:39:32;;;;;;;0.10;0.10;;;;;;;;;;5110162;28;20448;-52
2023/07/16 13:41:57;;;;;;;0.10;0.10;;;;;;;;;;5109398;28;20488;-52
2023/07/16 13:44:38;;;;;;;0.10;0.10;;;;;;;;;;5110039;28;20071;-52
2023/07/16 13:47:03;;;;;;;0.10;0.10;;;;;;;;;;5113518;28;20043;-52
2023/07/16 13:49:29;;;;;;;0.10;0.10;;;;;;;;;;5113403;28;20054;-52
2023/07/16 13:51:55;;;;;;;0.10;0.10;;;;;;;;;;5113286;28;20048;-52
2023/07/16 13:54:20;;;;;;;0.10;0.10;;;;;;;;;;5113377;28;20048;-52
2023/07/16 13:56:46;;;;;;;0.10;0.10;;;;;;;;;;5113398;28;20507;-53
2023/07/16 13:59:11;;;;;;;0.10;0.10;;;;;;;;;;5113681;28;20049;-53
2023/07/16 14:01:38;;;;;;;0.10;0.10;;;;;;;;;;5113089;28;20048;-52
2023/07/16 14:04:04;;;;;;;0.10;0.10;;;;;;;;;;5113697;28;20052;-53
2023/07/16 14:06:30;;;;;;;0.10;0.10;;;;;;;;;;5113431;28;20051;-51
2023/07/16 14:08:55;;;;;;;0.10;0.10;;;;;;;;;;5113814;28;20047;-52
2023/07/16 14:11:22;;;;;;;0.10;0.10;;;;;;;;;;5098891;28;20059;-53
2023/07/16 14:13:50;;;;;;;0.10;0.10;;;;;;;;;;5092492;28;20062;-52
2023/07/16 14:16:17;;;;;;;0.10;0.10;;;;;;;;;;5092539;28;20051;-52
2023/07/16 14:18:43;;;;;;;0.10;0.10;;;;;;;;;;5093080;28;20334;-52
2023/07/16 14:21:08;;;;;;;0.10;0.10;;;;;;;;;;5092241;28;20462;-52
2023/07/16 14:23:34;;;;;;;0.10;0.10;;;;;;;;;;5093145;28;20532;-52
2023/07/16 14:26:00;;;;;;;0.10;0.10;;;;;;;;;;5092927;28;20438;-52
2023/07/16 14:28:25;;;;;;;0.10;0.10;;;;;;;;;;5093160;28;20499;-52
2023/07/16 14:30:51;;;;;;;0.10;0.10;;;;;;;;;;5092796;28;20048;-53
2023/07/16 14:33:16;;;;;;;0.10;0.10;;;;;;;;;;5099360;28;20055;-53
2023/07/16 14:35:42;;;;;;;0.10;0.10;;;;;;;;;;5123901;28;20483;-52